createdAt,value
2019-03-20T00:02:18.250Z,4.60
2019-03-20T00:04:50.616Z,5.17
2019-03-20T00:07:24.821Z,4.90
2019-03-20T00:09:55.659Z,4.40
2019-03-20T00:12:26.442Z,3.90
2019-03-20T00:14:57.786Z,4.13
2019-03-20T00:17:28.222Z,3.67
2019-03-20T00:19:59.028Z,4.03
2019-03-20T00:22:29.533Z,4.07
2019-03-20T00:25:00.447Z,4.23
2019-03-20T00:27:31.207Z,4.20
2019-03-20T00:30:01.727Z,3.93
2019-03-20T00:32:32.618Z,3.87
2019-03-20T00:35:03.531Z,4.23
2019-03-20T00:37:34.370Z,4.40
2019-03-20T00:40:10.828Z,4.00
2019-03-20T00:42:41.700Z,4.20
2019-03-20T00:45:23.177Z,3.87
2019-03-20T00:47:53.789Z,3.70
2019-03-20T00:50:24.977Z,3.57
2019-03-20T00:52:58.837Z,4.10
2019-03-20T00:55:29.578Z,3.97
2019-03-20T00:58:00.513Z,4.10
2019-03-20T01:00:31.361Z,4.17
2019-03-20T01:03:02.314Z,3.90
2019-03-20T01:05:35.892Z,3.57
2019-03-20T01:08:06.928Z,4.00
2019-03-20T01:10:37.867Z,3.30
2019-03-20T01:13:08.766Z,3.37
2019-03-20T01:15:39.395Z,3.40
2019-03-20T01:18:10.176Z,3.37
2019-03-20T01:20:41.007Z,3.43
2019-03-20T01:23:11.840Z,3.73
2019-03-20T01:25:42.690Z,3.10
2019-03-20T01:28:13.534Z,3.50
2019-03-20T01:30:44.460Z,2.90
2019-03-20T01:33:15.534Z,3.30
2019-03-20T01:35:46.357Z,3.37
2019-03-20T01:38:17.390Z,3.47
2019-03-20T01:40:47.908Z,3.27
2019-03-20T01:43:18.404Z,3.50
2019-03-20T01:45:49.277Z,3.30
2019-03-20T01:48:20.110Z,3.33
2019-03-20T01:50:50.945Z,3.13
2019-03-20T01:53:21.782Z,3.43
2019-03-20T01:55:52.240Z,3.50
2019-03-20T01:58:23.174Z,3.40
2019-03-20T02:00:53.990Z,3.10
2019-03-20T02:03:24.854Z,3.07
2019-03-20T02:05:55.664Z,3.43
2019-03-20T02:08:26.516Z,3.00
2019-03-20T02:10:57.334Z,3.10
2019-03-20T02:13:28.177Z,3.10
2019-03-20T02:15:59.210Z,3.63
2019-03-20T02:18:30.067Z,3.17
2019-03-20T02:21:01.194Z,3.70
2019-03-20T02:23:32.026Z,3.17
2019-03-20T02:26:02.877Z,3.20
2019-03-20T02:28:33.715Z,3.10
2019-03-20T02:31:04.791Z,2.63
2019-03-20T02:33:35.692Z,3.03
2019-03-20T02:36:06.507Z,2.70
2019-03-20T02:38:37.345Z,3.13
2019-03-20T02:41:08.068Z,3.10
2019-03-20T02:43:39.039Z,3.77
2019-03-20T02:46:09.854Z,3.57
2019-03-20T02:48:40.612Z,3.27
2019-03-20T02:51:11.529Z,3.20
2019-03-20T02:53:42.264Z,3.13
2019-03-20T02:56:13.086Z,3.40
2019-03-20T02:58:43.850Z,3.60
2019-03-20T03:01:14.784Z,3.80
2019-03-20T03:03:45.295Z,3.43
2019-03-20T03:06:16.162Z,4.10
2019-03-20T03:08:46.960Z,3.47
2019-03-20T03:11:17.931Z,3.20
2019-03-20T03:13:48.882Z,3.30
2019-03-20T03:16:19.813Z,3.07
2019-03-20T03:18:50.632Z,3.00
2019-03-20T03:21:21.477Z,2.83
2019-03-20T03:23:55.094Z,3.33
2019-03-20T03:26:26.022Z,3.13
2019-03-20T03:28:56.846Z,3.00
2019-03-20T03:31:27.689Z,3.83
2019-03-20T03:33:58.623Z,3.40
2019-03-20T03:36:29.487Z,3.27
2019-03-20T03:39:00.428Z,3.07
2019-03-20T03:41:31.340Z,3.00
2019-03-20T03:44:02.208Z,3.30
2019-03-20T03:46:33.006Z,2.97
2019-03-20T03:49:03.876Z,3.10
2019-03-20T03:51:34.669Z,3.43
2019-03-20T03:54:05.840Z,3.20
2019-03-20T03:56:36.653Z,3.30
2019-03-20T03:59:07.405Z,3.60
2019-03-20T04:01:38.298Z,3.57
2019-03-20T04:04:08.867Z,3.23
2019-03-20T04:06:39.716Z,3.40
2019-03-20T04:09:10.532Z,3.20
2019-03-20T04:11:41.263Z,3.60
2019-03-20T04:14:12.101Z,3.20
2019-03-20T04:16:42.958Z,3.70
2019-03-20T04:19:13.774Z,3.37
2019-03-20T04:21:44.624Z,3.20
2019-03-20T04:24:15.484Z,3.30
2019-03-20T04:26:46.279Z,3.17
2019-03-20T04:29:17.132Z,3.30
2019-03-20T04:31:47.952Z,3.50
2019-03-20T04:34:18.821Z,3.47
2019-03-20T04:36:49.640Z,3.77
2019-03-20T04:39:20.562Z,3.30
2019-03-20T04:41:51.415Z,3.83
2019-03-20T04:44:22.269Z,3.53
2019-03-20T04:46:53.082Z,3.60
2019-03-20T04:49:23.915Z,4.20
2019-03-20T04:51:54.745Z,4.23
2019-03-20T04:54:25.207Z,3.90
2019-03-20T04:56:56.118Z,4.30
2019-03-20T04:59:26.961Z,4.37
2019-03-20T05:01:57.693Z,5.37
2019-03-20T05:04:28.554Z,3.70
2019-03-20T05:06:59.474Z,3.63
2019-03-20T05:09:30.669Z,4.10
2019-03-20T05:12:01.193Z,4.40
2019-03-20T05:14:32.075Z,5.47
2019-03-20T05:17:02.838Z,4.70
2019-03-20T05:19:33.759Z,4.40
2019-03-20T05:22:04.477Z,4.03
2019-03-20T05:24:35.356Z,4.23
2019-03-20T05:27:05.879Z,3.67
2019-03-20T05:29:36.352Z,4.00
2019-03-20T05:32:06.885Z,4.33
2019-03-20T05:34:37.747Z,4.50
2019-03-20T05:37:10.677Z,4.13
2019-03-20T05:39:40.777Z,5.20
2019-03-20T05:42:11.693Z,4.93
2019-03-20T05:44:42.486Z,3.80
2019-03-20T05:47:13.362Z,3.73
2019-03-20T05:49:44.125Z,3.47
2019-03-20T05:52:14.965Z,3.70
2019-03-20T05:54:45.422Z,4.17
2019-03-20T05:57:16.315Z,4.17
2019-03-20T05:59:47.237Z,4.03
2019-03-20T06:02:18.071Z,4.13
2019-03-20T06:04:48.847Z,3.70
2019-03-20T06:07:21.761Z,4.50
2019-03-20T06:09:51.818Z,5.07
2019-03-20T06:12:22.640Z,5.07
2019-03-20T06:14:53.122Z,4.83
2019-03-20T06:17:24.453Z,5.20
2019-03-20T06:19:55.395Z,5.33
2019-03-20T06:22:26.478Z,4.53
2019-03-20T06:24:57.273Z,4.63
2019-03-20T06:27:28.091Z,5.47
2019-03-20T06:29:59.033Z,4.10
2019-03-20T06:32:29.488Z,4.40
2019-03-20T06:35:00.446Z,4.13
2019-03-20T06:37:32.782Z,4.87
2019-03-20T06:40:04.961Z,4.30
2019-03-20T06:42:36.005Z,4.30
2019-03-20T06:45:10.125Z,4.90
2019-03-20T06:47:40.922Z,4.77
2019-03-20T06:50:17.496Z,6.10
2019-03-20T06:52:48.054Z,3.53
2019-03-20T06:55:18.970Z,3.93
2019-03-20T06:57:49.935Z,3.87
2019-03-20T07:00:55.820Z,3.90
2019-03-20T07:03:29.798Z,4.20
2019-03-20T07:06:12.205Z,4.17
2019-03-20T07:09:05.571Z,4.10
2019-03-20T07:11:40.678Z,3.87
2019-03-20T07:14:23.325Z,3.57
2019-03-20T07:16:54.287Z,3.97
2019-03-20T07:19:28.152Z,3.40
2019-03-20T07:21:59.200Z,3.20
2019-03-20T07:24:30.257Z,3.20
2019-03-20T07:27:01.018Z,2.90
2019-03-20T07:29:31.843Z,3.53
2019-03-20T07:32:02.930Z,3.33
2019-03-20T07:34:34.034Z,2.90
2019-03-20T07:37:04.626Z,3.20
2019-03-20T07:39:35.574Z,2.93
2019-03-20T07:42:06.630Z,2.97
2019-03-20T07:44:37.586Z,3.50
2019-03-20T07:47:08.372Z,3.33
2019-03-20T07:49:39.256Z,3.27
2019-03-20T07:52:10.075Z,4.07
2019-03-20T07:54:40.875Z,3.73
2019-03-20T07:57:11.744Z,3.73
2019-03-20T07:59:42.564Z,4.23
2019-03-20T08:02:13.600Z,3.57
2019-03-20T08:04:44.436Z,4.03
2019-03-20T08:07:15.287Z,4.17
2019-03-20T08:09:45.815Z,3.87
2019-03-20T08:12:16.730Z,3.90
2019-03-20T08:14:49.357Z,3.30
2019-03-20T08:17:20.319Z,3.20
2019-03-20T08:19:51.224Z,3.87
2019-03-20T08:22:22.125Z,3.60
2019-03-20T08:24:55.843Z,3.80
2019-03-20T08:27:26.783Z,3.60
2019-03-20T08:29:57.604Z,4.00
2019-03-20T08:32:31.301Z,3.43
2019-03-20T08:35:02.212Z,2.97
2019-03-20T08:37:32.982Z,2.90
2019-03-20T08:40:05.274Z,3.00
2019-03-20T08:42:36.228Z,2.73
2019-03-20T08:45:15.318Z,3.10
2019-03-20T08:47:46.311Z,3.03
2019-03-20T08:50:19.825Z,2.63
2019-03-20T08:52:51.354Z,2.77
2019-03-20T08:55:22.661Z,3.03
2019-03-20T08:57:53.567Z,3.20
2019-03-20T09:00:25.360Z,2.80
2019-03-20T09:02:56.135Z,3.00
2019-03-20T09:05:27.032Z,3.70
2019-03-20T09:07:57.973Z,2.90
2019-03-20T09:10:29.051Z,2.80
2019-03-20T09:13:02.942Z,3.20
2019-03-20T09:15:33.779Z,3.10
2019-03-20T09:18:04.744Z,2.70
2019-03-20T09:20:35.534Z,2.80
2019-03-20T09:23:08.010Z,2.83
2019-03-20T09:25:39.195Z,3.53
2019-03-20T09:28:10.302Z,3.40
2019-03-20T09:30:42.880Z,2.73
2019-03-20T09:33:14.243Z,3.20
2019-03-20T09:35:45.807Z,3.30
2019-03-20T09:38:16.737Z,2.97
2019-03-20T09:40:47.681Z,2.93
2019-03-20T09:43:18.808Z,3.20
2019-03-20T09:45:49.844Z,2.77
2019-03-20T09:48:21.007Z,3.27
2019-03-20T09:50:51.930Z,3.37
2019-03-20T09:53:22.841Z,3.40
2019-03-20T09:55:53.807Z,4.13
2019-03-20T09:58:24.929Z,4.73
2019-03-20T10:00:55.713Z,5.30
2019-03-20T10:03:26.582Z,6.40
2019-03-20T10:05:57.153Z,5.80
2019-03-20T10:08:29.125Z,7.07
2019-03-20T10:11:00.075Z,6.93
2019-03-20T10:13:30.542Z,7.10
2019-03-20T10:16:01.313Z,7.07
2019-03-20T10:18:32.283Z,6.70
2019-03-20T10:21:03.116Z,7.57
2019-03-20T10:23:33.950Z,8.47
2019-03-20T10:26:04.765Z,8.40
2019-03-20T10:28:35.198Z,9.50
2019-03-20T10:31:05.686Z,9.43
2019-03-20T10:33:38.109Z,8.87
2019-03-20T10:36:09.037Z,9.50
2019-03-20T10:38:40.904Z,9.30
2019-03-20T10:41:11.893Z,8.70
2019-03-20T10:43:42.696Z,7.93
2019-03-20T10:46:13.248Z,8.67
2019-03-20T10:48:44.142Z,8.13
2019-03-20T10:51:16.524Z,8.43
2019-03-20T10:53:47.340Z,8.97
2019-03-20T10:56:18.230Z,8.40
2019-03-20T10:58:48.786Z,8.70
2019-03-20T11:01:19.817Z,8.97
2019-03-20T11:03:50.715Z,8.77
2019-03-20T11:06:21.557Z,9.87
2019-03-20T11:08:52.493Z,9.30
2019-03-20T11:11:27.384Z,10.30
2019-03-20T11:13:55.944Z,10.83
2019-03-20T11:16:26.426Z,9.70
2019-03-20T11:18:57.467Z,10.40
2019-03-20T11:21:28.293Z,9.27
2019-03-20T11:23:59.814Z,10.53
2019-03-20T11:26:30.286Z,12.40
2019-03-20T11:29:00.789Z,11.37
2019-03-20T11:31:31.664Z,11.80
2019-03-20T11:34:02.894Z,12.03
2019-03-20T11:36:33.841Z,11.87
2019-03-20T11:39:07.873Z,12.27
2019-03-20T11:41:43.962Z,11.73
2019-03-20T11:44:14.442Z,12.57
2019-03-20T11:46:45.275Z,14.40
2019-03-20T11:49:16.119Z,13.27
2019-03-20T11:51:46.945Z,12.87
2019-03-20T11:54:17.854Z,12.70
2019-03-20T11:56:48.631Z,12.73
2019-03-20T11:59:19.501Z,12.53
2019-03-20T12:01:50.297Z,11.60
2019-03-20T12:04:21.107Z,10.50
2019-03-20T12:06:51.989Z,12.20
2019-03-20T12:09:22.905Z,11.43
2019-03-20T12:11:53.844Z,12.20
2019-03-20T12:14:24.680Z,11.50
2019-03-20T12:16:55.514Z,11.43
2019-03-20T12:19:26.497Z,11.23
2019-03-20T12:21:57.390Z,10.13
2019-03-20T12:24:28.105Z,10.53
2019-03-20T12:26:58.538Z,12.20
2019-03-20T12:29:29.288Z,12.00
2019-03-20T12:32:00.260Z,12.33
2019-03-20T12:34:34.234Z,13.23
2019-03-20T12:37:05.086Z,13.17
2019-03-20T12:39:38.233Z,12.80
2019-03-20T12:42:08.611Z,12.73
2019-03-20T12:44:39.610Z,12.43
2019-03-20T12:47:10.500Z,12.97
2019-03-20T12:49:41.402Z,14.07
2019-03-20T12:52:12.282Z,13.63
2019-03-20T12:54:43.195Z,14.23
2019-03-20T12:57:13.670Z,14.77
2019-03-20T12:59:44.621Z,14.57
2019-03-20T13:02:15.495Z,14.40
2019-03-20T13:04:46.329Z,13.87
2019-03-20T13:07:17.058Z,13.80
2019-03-20T13:09:47.897Z,15.33
2019-03-20T13:12:18.617Z,15.90
2019-03-20T13:14:49.368Z,15.53
2019-03-20T13:17:20.229Z,14.43
2019-03-20T13:19:51.049Z,14.47
2019-03-20T13:22:21.668Z,15.27
2019-03-20T13:24:52.502Z,15.70
2019-03-20T13:27:23.247Z,15.70
2019-03-20T13:29:54.102Z,14.90
2019-03-20T13:32:24.592Z,15.27
2019-03-20T13:34:55.342Z,14.93
2019-03-20T13:37:26.387Z,13.63
2019-03-20T13:39:57.230Z,13.63
2019-03-20T13:42:29.274Z,14.17
2019-03-20T13:45:00.011Z,13.97
2019-03-20T13:47:31.079Z,14.10
2019-03-20T13:50:01.619Z,15.73
2019-03-20T13:52:32.335Z,15.13
2019-03-20T13:55:02.798Z,13.60
2019-03-20T13:57:33.649Z,14.13
2019-03-20T14:00:10.448Z,14.50
2019-03-20T14:02:41.372Z,14.03
2019-03-20T14:05:12.764Z,13.47
2019-03-20T14:07:46.720Z,15.57
2019-03-20T14:10:25.828Z,14.53
2019-03-20T14:12:57.080Z,15.03
2019-03-20T14:15:27.984Z,15.37
2019-03-20T14:18:01.022Z,15.50
2019-03-20T14:20:33.227Z,15.33
2019-03-20T14:23:04.152Z,14.67
2019-03-20T14:25:35.024Z,15.43
2019-03-20T14:28:05.802Z,14.93
2019-03-20T14:30:36.669Z,14.73
2019-03-20T14:33:07.184Z,15.40
2019-03-20T14:35:38.212Z,14.43
2019-03-20T14:38:10.153Z,14.70
2019-03-20T14:40:41.024Z,16.00
2019-03-20T14:43:12.053Z,16.37
2019-03-20T14:45:46.345Z,14.40
2019-03-20T14:48:19.585Z,15.13
2019-03-20T14:50:49.923Z,16.13
2019-03-20T14:53:20.819Z,22.47
2019-03-20T14:55:52.541Z,15.70
2019-03-20T14:58:24.044Z,14.47
2019-03-20T15:00:54.899Z,13.97
2019-03-20T15:03:27.185Z,12.77
2019-03-20T15:05:58.273Z,11.77
2019-03-20T15:08:28.880Z,11.03
2019-03-20T15:10:59.341Z,10.70
2019-03-20T15:13:30.406Z,10.33
2019-03-20T15:16:10.171Z,9.60
2019-03-20T15:18:42.690Z,10.37
2019-03-20T15:21:15.200Z,8.63
2019-03-20T15:23:46.155Z,8.80
2019-03-20T15:26:17.432Z,9.00
2019-03-20T15:28:48.311Z,8.40
2019-03-20T15:31:19.059Z,8.80
2019-03-20T15:33:49.951Z,8.37
2019-03-20T15:36:20.593Z,8.10
2019-03-20T15:38:51.457Z,8.17
2019-03-20T15:41:22.380Z,8.43
2019-03-20T15:44:02.182Z,8.10
2019-03-20T15:46:25.775Z,8.10
2019-03-20T15:48:58.236Z,8.10
2019-03-20T15:51:28.953Z,8.67
2019-03-20T15:53:59.808Z,8.70
2019-03-20T15:56:30.396Z,9.03
2019-03-20T15:59:01.259Z,9.20
2019-03-20T16:01:32.219Z,12.00
2019-03-20T16:04:05.030Z,9.20
2019-03-20T16:06:35.952Z,8.33
2019-03-20T16:09:08.654Z,8.77
2019-03-20T16:11:39.205Z,8.90
2019-03-20T16:14:10.192Z,8.53
2019-03-20T16:16:41.061Z,8.23
2019-03-20T16:19:11.923Z,7.87
2019-03-20T16:21:46.726Z,7.70
2019-03-20T16:24:17.190Z,8.10
2019-03-20T16:26:47.621Z,8.33
2019-03-20T16:29:18.579Z,8.70
2019-03-20T16:31:49.436Z,8.90
2019-03-20T16:34:19.951Z,8.00
2019-03-20T16:36:50.823Z,8.80
2019-03-20T16:39:21.750Z,9.13
2019-03-20T16:41:52.297Z,8.53
2019-03-20T16:44:23.179Z,8.10
2019-03-20T16:46:54.035Z,8.27
2019-03-20T16:49:24.835Z,7.97
2019-03-20T16:51:55.599Z,8.27
2019-03-20T16:54:26.587Z,8.20
2019-03-20T16:56:57.426Z,8.53
2019-03-20T16:59:28.414Z,8.53
2019-03-20T17:02:00.949Z,8.10
2019-03-20T17:04:31.893Z,8.43
2019-03-20T17:07:03.974Z,8.53
2019-03-20T17:09:34.837Z,8.00
2019-03-20T17:12:06.102Z,8.10
2019-03-20T17:14:41.832Z,7.77
2019-03-20T17:17:17.681Z,8.00
2019-03-20T17:19:48.814Z,7.93
2019-03-20T17:22:21.450Z,7.77
2019-03-20T17:24:56.660Z,7.77
2019-03-20T17:27:30.286Z,7.53
2019-03-20T17:30:04.742Z,7.40
2019-03-20T17:32:40.031Z,7.07
2019-03-20T17:35:14.093Z,7.27
2019-03-20T17:37:52.850Z,7.07
2019-03-20T17:40:28.396Z,7.27
2019-03-20T17:43:01.709Z,6.90
2019-03-20T17:45:34.428Z,7.23
2019-03-20T17:48:05.685Z,108.40
2019-03-20T17:50:36.537Z,35.47
2019-03-20T17:53:07.593Z,9.20
2019-03-20T17:55:38.277Z,7.50
2019-03-20T17:58:09.247Z,7.77
2019-03-20T18:00:44.829Z,7.00
2019-03-20T18:03:15.919Z,7.53
2019-03-20T18:05:46.742Z,6.53
2019-03-20T18:08:19.256Z,7.00
2019-03-20T18:10:50.425Z,6.97
2019-03-20T18:13:21.270Z,7.27
2019-03-20T18:15:52.155Z,7.50
2019-03-20T18:18:22.914Z,8.03
2019-03-20T18:20:53.814Z,7.50
2019-03-20T18:23:24.581Z,6.97
2019-03-20T18:25:55.478Z,7.83
2019-03-20T18:28:26.298Z,7.87
2019-03-20T18:30:58.539Z,6.87
2019-03-20T18:33:31.000Z,6.80
2019-03-20T18:36:01.494Z,6.90
2019-03-20T18:38:31.984Z,6.77
2019-03-20T18:41:02.906Z,6.83
2019-03-20T18:43:36.722Z,6.57
2019-03-20T18:46:08.169Z,6.83
2019-03-20T18:48:43.101Z,7.50
2019-03-20T18:51:21.498Z,6.80
2019-03-20T18:53:52.555Z,7.33
2019-03-20T18:56:23.531Z,7.20
2019-03-20T18:58:57.430Z,7.00
2019-03-20T19:01:29.556Z,7.03
2019-03-20T19:03:59.971Z,6.57
2019-03-20T19:06:31.755Z,7.33
2019-03-20T19:09:12.941Z,6.90
2019-03-20T19:11:47.531Z,7.33
2019-03-20T19:14:18.763Z,7.10
2019-03-20T19:16:49.951Z,6.93
2019-03-20T19:19:21.231Z,7.20
2019-03-20T19:21:52.600Z,7.57
2019-03-20T19:24:23.603Z,7.53
2019-03-20T19:26:54.649Z,7.23
2019-03-20T19:29:25.799Z,7.70
2019-03-20T19:32:00.515Z,7.00
2019-03-20T19:34:32.542Z,8.20
2019-03-20T19:37:03.515Z,7.50
2019-03-20T19:39:34.392Z,8.07
2019-03-20T19:42:05.221Z,7.70
2019-03-20T19:44:36.169Z,7.07
2019-03-20T19:47:07.070Z,7.53
2019-03-20T19:49:37.955Z,7.83
2019-03-20T19:52:08.366Z,8.63
2019-03-20T19:54:39.159Z,9.90
2019-03-20T19:57:13.273Z,8.97
2019-03-20T19:59:44.270Z,8.83
2019-03-20T20:02:18.438Z,9.20
2019-03-20T20:04:57.237Z,8.47
2019-03-20T20:07:28.123Z,9.77
2019-03-20T20:09:58.933Z,9.80
2019-03-20T20:12:31.611Z,8.37
2019-03-20T20:15:02.863Z,9.27
2019-03-20T20:17:33.764Z,9.47
2019-03-20T20:20:08.218Z,8.63
2019-03-20T20:22:38.775Z,8.20
2019-03-20T20:25:09.585Z,9.30
2019-03-20T20:27:40.651Z,9.07
2019-03-20T20:30:28.867Z,8.30
2019-03-20T20:33:01.231Z,8.50
2019-03-20T20:35:32.177Z,8.60
2019-03-20T20:38:03.101Z,8.17
2019-03-20T20:40:34.253Z,8.47
2019-03-20T20:43:04.997Z,8.20
2019-03-20T20:45:35.480Z,8.80
2019-03-20T20:48:06.234Z,9.00
2019-03-20T20:50:37.213Z,9.00
2019-03-20T20:53:10.477Z,9.07
2019-03-20T20:55:41.014Z,8.43
2019-03-20T20:58:12.554Z,8.97
2019-03-20T21:00:43.415Z,8.50
2019-03-20T21:03:15.897Z,8.43
2019-03-20T21:05:46.831Z,8.60
2019-03-20T21:08:17.669Z,9.00
2019-03-20T21:10:48.497Z,8.77
2019-03-20T21:13:19.277Z,9.33
2019-03-20T21:15:50.509Z,9.40
2019-03-20T21:18:44.337Z,8.90
2019-03-20T21:21:15.189Z,8.87
2019-03-20T21:24:22.281Z,9.67
2019-03-20T21:27:08.249Z,9.57
2019-03-20T21:30:04.909Z,10.00
2019-03-20T21:32:50.221Z,10.17
2019-03-20T21:35:55.522Z,10.47
2019-03-20T21:38:25.233Z,9.87
2019-03-20T21:41:18.300Z,10.67
2019-03-20T21:44:10.051Z,11.03
2019-03-20T21:47:09.542Z,11.33
2019-03-20T21:49:40.539Z,11.00
2019-03-20T21:52:11.443Z,11.10
2019-03-20T21:55:05.116Z,10.73
2019-03-20T21:57:41.618Z,11.27
2019-03-20T22:00:23.773Z,10.27
2019-03-20T22:02:54.481Z,11.20
2019-03-20T22:05:30.864Z,11.03
2019-03-20T22:08:01.414Z,11.67
2019-03-20T22:10:56.704Z,13.00
2019-03-20T22:13:36.656Z,12.60
2019-03-20T22:16:42.473Z,12.70
2019-03-20T22:19:22.699Z,13.57
2019-03-20T22:22:13.108Z,14.10
2019-03-20T22:25:11.487Z,14.97
2019-03-20T22:27:58.676Z,15.60
2019-03-20T22:30:29.604Z,16.63
2019-03-20T22:33:36.810Z,15.43
2019-03-20T22:36:07.844Z,16.40
2019-03-20T22:38:46.981Z,16.83
2019-03-20T22:41:29.484Z,16.03
2019-03-20T22:44:01.649Z,15.67
2019-03-20T22:47:08.919Z,16.33
2019-03-20T22:50:03.808Z,17.03
2019-03-20T22:53:00.494Z,16.73
2019-03-20T22:55:43.399Z,16.40
2019-03-20T22:58:17.298Z,17.17
2019-03-20T23:00:51.400Z,17.07
2019-03-20T23:03:28.199Z,16.27
2019-03-20T23:05:59.184Z,16.33
2019-03-20T23:08:30.000Z,17.53
2019-03-20T23:11:01.593Z,17.17
2019-03-20T23:13:40.973Z,17.07
2019-03-20T23:16:08.558Z,18.57
2019-03-20T23:18:39.938Z,18.03
2019-03-20T23:21:12.840Z,18.87
2019-03-20T23:23:43.724Z,18.90
2019-03-20T23:26:14.634Z,18.37
2019-03-20T23:28:45.191Z,18.37
2019-03-20T23:31:17.546Z,19.23
2019-03-20T23:33:48.404Z,17.60
2019-03-20T23:36:25.002Z,18.27
2019-03-20T23:38:55.271Z,17.97
2019-03-20T23:41:25.711Z,19.03
2019-03-20T23:43:56.718Z,18.17
2019-03-20T23:46:27.463Z,18.40
2019-03-20T23:49:10.804Z,18.23
2019-03-20T23:51:41.361Z,18.93
2019-03-20T23:54:13.333Z,18.50
2019-03-20T23:56:44.128Z,19.57
2019-03-20T23:59:14.972Z,18.83
